Data for 05/27/2006

Time Sea-Level Adjusted Pressure Absolute Pressure Temperature Relative Humidity Dew Point   
(mb) (inHg) (mb) (inHg) (C) (F) (%) (C) (F)
00:05 1007 29.74 837 24.72 9.1 48.5 75 5 41
00:10 1007 29.74 837 24.72 9.1 48.4 76 5.2 41.4
00:15 1007 29.74 837 24.72 9 48.3 77 5.3 41.5
00:20 1007 29.74 837 24.72 9 48.2 78 5.3 41.6
00:25 1007 29.74 837 24.72 8.9 47.9 79 5.4 41.8
00:30 1008 29.77 837 24.72 8.7 47.7 80 5.5 42
00:35 1008 29.77 837 24.72 8.6 47.4 79 5.2 41.3
00:40 1008 29.77 837 24.72 8.6 47.5 80 5.3 41.6
00:45 1008 29.77 837 24.72 8.5 47.4 80 5.3 41.6
00:50 1007 29.74 837 24.72 8.5 47.3 80 5.2 41.3
00:55 1007 29.74 837 24.72 8.4 47.1 80 5.2 41.3
01:00 1007 29.74 836 24.69 8.3 46.9 82 5.4 41.8
01:05 1007 29.74 836 24.69 8.2 46.8 81 5.2 41.4
01:10 1007 29.74 837 24.72 8.3 46.9 80 5.1 41.2
01:15 1007 29.74 836 24.69 8.3 47 84 5.8 42.4
01:20 1007 29.74 836 24.69 8.1 46.5 85 5.6 42.1
01:25 1007 29.74 836 24.69 7.9 46.1 85 5.5 41.8
01:30 1007 29.74 836 24.69 7.7 45.9 87 5.7 42.2
01:35 1007 29.74 836 24.69 7.6 45.6 87 5.5 42
01:40 1007 29.74 836 24.69 7.5 45.5 87 5.5 41.9
01:45 1007 29.74 836 24.69 7.4 45.3 87 5.4 41.8
01:50 1006 29.71 836 24.69 7.3 45.2 88 5.5 41.9
01:55 1006 29.71 835 24.66 7.3 45.1 89 5.6 42.1
02:00 1006 29.71 835 24.66 7.1 44.9 88 5.3 41.6
02:05 1006 29.71 835 24.66 7.2 45 88 5.3 41.5
02:10 1006 29.71 835 24.66 7.3 45.1 86 5.1 41.2
02:15 1006 29.71 835 24.66 7.4 45.3 84 4.8 40.6
02:20 1006 29.71 835 24.66 7.5 45.4 83 4.8 40.6
02:25 1006 29.71 836 24.69 7.5 45.5 84 4.9 40.9
02:30 1007 29.74 836 24.69 7.5 45.4 84 4.9 40.8
02:35 1007 29.74 836 24.69 7.4 45.3 84 4.8 40.7
02:40 1007 29.74 836 24.69 7.4 45.3 84 4.9 40.8
02:45 1007 29.74 836 24.69 7.5 45.4 81 4.4 40
02:50 1006 29.71 836 24.69 7.5 45.6 81 4.5 40.1
02:55 1006 29.71 836 24.69 7.5 45.6 85 5.2 41.3
03:00 1006 29.71 836 24.69 7.4 45.2 84 4.8 40.6
03:05 1006 29.71 836 24.69 7.3 45.1 84 4.8 40.6
03:10 1007 29.74 836 24.69 7.2 45 84 4.7 40.5
03:15 1007 29.74 836 24.69 7.2 44.9 84 4.7 40.4
03:20 1007 29.74 836 24.69 7.1 44.8 85 4.7 40.5
03:25 1007 29.74 836 24.69 7 44.6 87 4.9 40.9
03:30 1007 29.74 836 24.69 6.8 44.3 88 4.9 40.9
03:35 1007 29.74 836 24.69 6.8 44.3 86 4.7 40.4
03:40 1007 29.74 836 24.69 6.8 44.3 87 4.8 40.7
03:45 1007 29.74 836 24.69 6.8 44.3 87 4.8 40.7
03:50 1007 29.74 836 24.69 6.8 44.2 87 4.8 40.6
03:55 1007 29.74 836 24.69 6.7 44.1 88 4.8 40.7
04:00 1007 29.74 836 24.69 6.6 43.9 88 4.8 40.7
04:05 1007 29.74 836 24.69 6.6 43.9 89 4.9 40.8
04:10 1007 29.74 836 24.69 6.4 43.6 89 4.8 40.6
04:15 1007 29.74 836 24.69 6.4 43.4 89 4.7 40.5
04:20 1007 29.74 836 24.69 6.2 43.2 90 4.6 40.3
04:25 1007 29.74 836 24.69 6.2 43.1 89 4.5 40
04:30 1007 29.74 836 24.69 6.2 43.2 90 4.7 40.4
04:35 1007 29.74 836 24.69 6.1 43 90 4.6 40.3
04:40 1006 29.71 836 24.69 6 42.9 90 4.5 40.1
04:45 1006 29.71 836 24.69 5.9 42.7 90 4.4 40
04:50 1006 29.71 836 24.69 5.8 42.5 91 4.5 40.1
04:55 1006 29.71 835 24.66 5.7 42.3 91 4.4 39.9
05:00 1006 29.71 835 24.66 5.6 42.2 91 4.3 39.7
05:05 1006 29.71 835 24.66 5.6 42 92 4.3 39.8
05:10 1006 29.71 835 24.66 5.5 41.9 91 4.2 39.6
05:15 1006 29.71 835 24.66 5.3 41.6 90 3.8 38.8
05:20 1006 29.71 835 24.66 5.3 41.6 90 3.9 38.9
05:25 1006 29.71 835 24.66 5.3 41.5 89 3.7 38.6
05:30 1006 29.71 835 24.66 5.2 41.3 89 3.6 38.5
05:35 1006 29.71 835 24.66 5.1 41.1 90 3.6 38.5
05:40 1005 29.68 835 24.66 5 41 92 3.8 38.9
05:45 1006 29.71 835 24.66 4.9 40.8 91 3.5 38.3
05:50 1006 29.71 835 24.66 4.9 40.8 90 3.4 38.2
05:55 1006 29.71 835 24.66 4.9 40.8 90 3.4 38.1
06:00 1006 29.71 835 24.66 4.7 40.5 91 3.4 38.1
06:05 1006 29.71 835 24.66 4.7 40.5 89 3.1 37.5
06:10 1006 29.71 835 24.66 4.8 40.6 89 3.1 37.7
06:15 1006 29.71 835 24.66 4.7 40.5 90 3.2 37.8
06:20 1006 29.71 835 24.66 4.7 40.4 91 3.3 37.9
06:25 1006 29.71 835 24.66 4.6 40.3 90 3.2 37.7
06:30 1006 29.71 835 24.66 4.6 40.3 90 3.2 37.7
06:35 1006 29.71 835 24.66 4.6 40.2 92 3.3 38
06:40 1006 29.71 835 24.66 4.5 40.1 91 3.2 37.8
06:45 1006 29.71 835 24.66 4.5 40.1 92 3.3 37.9
06:50 1006 29.71 835 24.66 4.5 40.1 91 3.2 37.7
06:55 1006 29.71 835 24.66 4.4 40 92 3.3 37.9
07:00 1006 29.71 835 24.66 4.4 39.9 93 3.3 38
07:05 1006 29.71 835 24.66 4.4 39.9 92 3.3 37.9
07:10 1006 29.71 835 24.66 4.4 39.9 93 3.3 37.9
07:15 1006 29.71 835 24.66 4.3 39.8 93 3.2 37.8
07:20 1006 29.71 835 24.66 4.4 39.9 93 3.4 38
07:25 1006 29.71 835 24.66 4.4 39.9 92 3.2 37.8
07:30 1006 29.71 835 24.66 4.4 39.9 93 3.4 38
07:35 1006 29.71 835 24.66 4.4 39.9 93 3.3 38
07:40 1006 29.71 835 24.66 4.3 39.8 93 3.4 38.1
07:45 1006 29.71 835 24.66 4.3 39.8 94 3.4 38.2
07:50 1006 29.71 835 24.66 4.3 39.7 94 3.3 38
07:55 1006 29.71 835 24.66 4.2 39.6 94 3.4 38.1
08:00 1006 29.71 835 24.66 4.3 39.7 94 3.3 38
08:05 1006 29.71 835 24.66 4.2 39.6 94 3.4 38
08:10 1006 29.71 835 24.66 4.2 39.6 94 3.3 38
08:15 1006 29.71 835 24.66 4.1 39.5 93 3.2 37.7
08:20 1006 29.71 835 24.66 4.1 39.5 93 3.2 37.7
08:25 1006 29.71 835 24.66 4.1 39.4 93 3.1 37.6
08:30 1006 29.71 835 24.66 4 39.2 93 3.1 37.5
08:35 1006 29.71 835 24.66 4.1 39.3 93 3 37.4
08:40 1006 29.71 835 24.66 4 39.2 92 2.7 36.9
08:45 1006 29.71 835 24.66 4 39.2 91 2.7 36.8
08:50 1006 29.71 835 24.66 3.9 39.1 92 2.8 37
08:55 1005 29.68 835 24.66 3.8 38.9 92 2.6 36.7
09:00 1005 29.68 835 24.66 3.8 38.9 93 2.7 36.9
09:05 1006 29.71 835 24.66 3.9 39 94 2.9 37.3
09:10 1006 29.71 835 24.66 3.8 38.9 93 2.7 36.9
09:15 1006 29.71 835 24.66 3.8 38.9 91 2.5 36.6
09:20 1005 29.68 835 24.66 3.9 38.9 91 2.6 36.7
09:25 1005 29.68 835 24.66 3.8 38.9 90 2.4 36.3
09:30 1005 29.68 834 24.63 3.8 38.9 90 2.3 36.2
09:35 1005 29.68 834 24.63 3.8 38.9 91 2.6 36.6
09:40 1005 29.68 834 24.63 3.8 38.8 93 2.7 36.8
09:45 1005 29.68 834 24.63 3.6 38.6 93 2.6 36.7
09:50 1005 29.68 834 24.63 3.7 38.6 93 2.6 36.7
09:55 1005 29.68 834 24.63 3.6 38.5 93 2.7 36.8
10:00 1005 29.68 834 24.63 3.7 38.7 93 2.8 37
10:05 1005 29.68 834 24.63 3.9 38.9 93 2.9 37.2
10:10 1005 29.68 834 24.63 3.9 39 93 2.8 37
10:15 1005 29.68 834 24.63 3.8 38.9 92 2.7 36.9
10:20 1005 29.68 834 24.63 3.8 38.9 92 2.6 36.7
10:25 1005 29.68 834 24.63 3.8 38.8 92 2.6 36.7
10:30 1005 29.68 834 24.63 3.8 38.9 91 2.6 36.6
10:35 1005 29.68 834 24.63 3.8 38.9 93 2.7 36.9
10:40 1005 29.68 834 24.63 3.9 39 92 2.6 36.7
10:45 1005 29.68 834 24.63 3.9 39.1 91 2.6 36.7
10:50 1005 29.68 834 24.63 3.9 39 90 2.4 36.3
10:55 1005 29.68 834 24.63 3.9 39.1 92 2.7 36.8
11:00 1005 29.68 834 24.63 4 39.3 93 3 37.4
11:05 1005 29.68 834 24.63 4 39.3 90 2.6 36.6
11:10 1005 29.68 834 24.63 4 39.3 92 2.8 37.1
11:15 1005 29.68 834 24.63 4.1 39.3 91 2.8 37
11:20 1005 29.68 834 24.63 4.1 39.4 91 2.8 37.1
11:25 1005 29.68 834 24.63 4.1 39.4 92 3 37.4
11:30 1005 29.68 834 24.63 4.2 39.5 91 2.9 37.2
11:35 1005 29.68 834 24.63 4.2 39.5 92 3 37.3
11:40 1004 29.65 834 24.63 4.3 39.7 92 3.2 37.7
11:45 1004 29.65 834 24.63 4.7 40.4 93 3.6 38.4
11:50 1004 29.65 834 24.63 4.8 40.6 91 3.4 38.2
11:55 1004 29.65 833 24.6 4.9 40.8 91 3.6 38.4
12:00 1004 29.65 833 24.6 5 41 91 3.6 38.5
12:05 1004 29.65 833 24.6 5.2 41.4 90 3.7 38.6
12:10 1004 29.65 833 24.6 5.3 41.6 88 3.4 38.2
12:15 1004 29.65 833 24.6 5.3 41.6 90 3.9 38.9
12:20 1004 29.65 833 24.6 5.5 42 89 3.8 38.9
12:25 1004 29.65 833 24.6 5.4 41.7 88 3.6 38.5
12:30 1004 29.65 833 24.6 5.3 41.5 92 4.1 39.4
12:35 1004 29.65 833 24.6 5.4 41.7 90 3.8 38.9
12:40 1004 29.65 833 24.6 5.3 41.6 91 4.1 39.3
12:45 1004 29.65 833 24.6 5.5 41.9 88 3.8 38.8
12:50 1004 29.65 833 24.6 5.6 42 88 3.8 38.8
12:55 1004 29.65 833 24.6 5.4 41.7 89 3.7 38.7
13:00 1004 29.65 833 24.6 5.3 41.6 90 3.8 38.8
13:05 1004 29.65 833 24.6 5.3 41.6 90 3.8 38.8
13:10 1004 29.65 834 24.63 5.4 41.8 89 3.8 38.9
13:15 1004 29.65 834 24.63 5.3 41.5 90 3.7 38.7
13:20 1004 29.65 834 24.63 5.1 41.3 91 3.7 38.7
13:25 1004 29.65 833 24.6 5.1 41.1 91 3.7 38.6
13:30 1004 29.65 833 24.6 5.1 41.1 92 3.8 38.9
13:35 1004 29.65 833 24.6 5.1 41.1 91 3.8 38.8
13:40 1004 29.65 833 24.6 5 40.9 89 3.3 37.9
13:45 1004 29.65 833 24.6 4.9 40.8 90 3.3 38
13:50 1004 29.65 833 24.6 4.9 40.9 90 3.4 38.2
13:55 1004 29.65 833 24.6 4.8 40.6 89 3.1 37.5
14:00 1004 29.65 833 24.6 4.4 39.9 89 2.8 37
14:05 1004 29.65 833 24.6 4.4 39.9 89 2.8 37
14:10 1004 29.65 833 24.6 4.4 39.8 89 2.7 36.8
14:15 1004 29.65 833 24.6 4 39.2 91 2.6 36.7
14:20 1004 29.65 833 24.6 4 39.2 91 2.6 36.8
14:25 1004 29.65 834 24.63 3.9 38.9 92 2.7 36.9
14:30 1004 29.65 834 24.63 3.7 38.7 92 2.6 36.7
14:35 1004 29.65 834 24.63 3.6 38.5 92 2.4 36.3
14:40 1005 29.68 834 24.63 3.7 38.6 93 2.7 36.8
14:45 1005 29.68 834 24.63 3.6 38.4 93 2.5 36.5
14:50 1005 29.68 834 24.63 3.7 38.6 91 2.3 36.1
14:55 1004 29.65 834 24.63 3.3 38 91 2 35.6
15:00 1004 29.65 834 24.63 3.4 38 91 2 35.6
15:05 1004 29.65 834 24.63 3.2 37.8 92 2.1 35.8
15:10 1005 29.68 834 24.63 3.2 37.8 90 1.8 35.3
15:15 1005 29.68 834 24.63 3.1 37.5 92 1.9 35.4
15:20 1005 29.68 834 24.63 3.2 37.8 91 1.9 35.4
15:25 1004 29.65 834 24.63 3.3 37.9 92 2.1 35.7
15:30 1005 29.68 834 24.63 3.4 38.1 91 2.1 35.8
15:35 1005 29.68 834 24.63 3.4 38.1 92 2.2 35.9
15:40 1005 29.68 834 24.63 3.5 38.2 92 2.2 36
15:45 1005 29.68 834 24.63 3.5 38.3 92 2.3 36.1
15:50 1005 29.68 834 24.63 3.6 38.5 91 2.3 36.1
15:55 1005 29.68 834 24.63 3.6 38.6 93 2.6 36.7
16:00 1005 29.68 834 24.63 3.9 39 92 2.7 36.9
16:05 1005 29.68 834 24.63 3.9 39.1 92 2.7 36.8
16:10 1005 29.68 834 24.63 4 39.2 92 2.8 37
16:15 1005 29.68 834 24.63 4 39.3 91 2.8 37
16:20 1005 29.68 834 24.63 4 39.2 92 2.8 37
16:25 1005 29.68 834 24.63 4 39.2 92 2.8 37
16:30 1005 29.68 835 24.66 4.1 39.3 93 3 37.4
16:35 1005 29.68 835 24.66 4.2 39.5 93 3.1 37.6
16:40 1006 29.71 835 24.66 4.2 39.6 94 3.4 38.1
16:45 1005 29.68 835 24.66 4.5 40.1 94 3.7 38.7
16:50 1005 29.68 834 24.63 4.6 40.3 94 3.8 38.8
16:55 1005 29.68 835 24.66 4.6 40.3 93 3.6 38.6
17:00 1006 29.71 835 24.66 4.7 40.4 94 3.7 38.7
17:05 1005 29.68 835 24.66 4.7 40.5 93 3.7 38.6
17:10 1005 29.68 835 24.66 4.7 40.5 93 3.7 38.6
17:15 1006 29.71 835 24.66 4.8 40.7 92 3.7 38.6
17:20 1006 29.71 835 24.66 4.9 40.9 92 3.8 38.8
17:25 1006 29.71 836 24.69 4.9 40.8 92 3.7 38.6
17:30 1006 29.71 835 24.66 4.9 40.8 93 3.8 38.9
17:35 1006 29.71 835 24.66 4.9 40.8 93 3.8 38.8
17:40 1006 29.71 835 24.66 4.9 40.7 92 3.7 38.6
17:45 1006 29.71 835 24.66 4.7 40.5 92 3.6 38.4
17:50 1006 29.71 835 24.66 4.7 40.4 92 3.5 38.2
17:55 1006 29.71 835 24.66 4.6 40.2 93 3.5 38.4
18:00 1006 29.71 835 24.66 4.7 40.5 92 3.6 38.4
18:05 1006 29.71 835 24.66 4.6 40.4 91 3.3 37.9
18:10 1006 29.71 835 24.66 4.7 40.4 91 3.3 37.9
18:15 1006 29.71 835 24.66 4.7 40.5 92 3.5 38.2
18:20 1006 29.71 835 24.66 4.7 40.5 92 3.5 38.3
18:25 1006 29.71 835 24.66 4.7 40.5 92 3.5 38.3
18:30 1006 29.71 835 24.66 4.7 40.5 92 3.6 38.4
18:35 1006 29.71 836 24.69 4.9 40.8 92 3.7 38.6
18:40 1006 29.71 836 24.69 4.9 40.9 90 3.5 38.2
18:45 1007 29.74 836 24.69 4.8 40.6 90 3.3 38
18:50 1007 29.74 836 24.69 4.9 40.9 91 3.6 38.5
18:55 1006 29.71 836 24.69 5.2 41.3 90 3.7 38.6
19:00 1006 29.71 836 24.69 5.1 41.1 91 3.7 38.6
19:05 1007 29.74 836 24.69 4.9 40.9 92 3.7 38.7
19:10 1007 29.74 836 24.69 5 41.1 92 3.8 38.8
19:15 1006 29.71 836 24.69 5 41.1 91 3.6 38.6
19:20 1006 29.71 836 24.69 5 41 90 3.5 38.3
19:25 1006 29.71 836 24.69 5.2 41.4 89 3.6 38.4
19:30 1007 29.74 836 24.69 5.2 41.4 88 3.4 38.1
19:35 1007 29.74 836 24.69 5.2 41.3 88 3.4 38.1
19:40 1007 29.74 836 24.69 5.1 41.1 88 3.3 38
19:45 1007 29.74 836 24.69 5.2 41.3 89 3.5 38.4
19:50 1007 29.74 836 24.69 5.2 41.4 88 3.4 38.2
19:55 1007 29.74 836 24.69 5.2 41.3 89 3.6 38.4
20:00 1007 29.74 836 24.69 5.2 41.3 89 3.5 38.3
20:05 1007 29.74 837 24.72 5.1 41.2 90 3.5 38.4
20:10 1008 29.77 837 24.72 5.1 41.2 89 3.5 38.2
20:15 1007 29.74 836 24.69 5.2 41.4 89 3.6 38.4
20:20 1007 29.74 836 24.69 5.1 41.2 90 3.6 38.4
20:25 1007 29.74 836 24.69 5.1 41.2 90 3.6 38.6
20:30 1008 29.77 837 24.72 5.2 41.3 89 3.5 38.3
20:35 1008 29.77 837 24.72 5.1 41.2 90 3.7 38.6
20:40 1008 29.77 837 24.72 5.2 41.3 89 3.5 38.4
20:45 1008 29.77 837 24.72 5.1 41.2 91 3.7 38.7
20:50 1008 29.77 837 24.72 5.1 41.1 89 3.4 38.2
20:55 1008 29.77 837 24.72 5 41.1 89 3.4 38
21:00 1008 29.77 837 24.72 5 41 89 3.3 37.9
21:05 1008 29.77 837 24.72 4.9 40.9 90 3.4 38.1
21:10 1008 29.77 837 24.72 4.8 40.7 91 3.5 38.3
21:15 1008 29.77 837 24.72 4.8 40.6 91 3.4 38.1
21:20 1008 29.77 837 24.72 4.8 40.6 91 3.5 38.2
21:25 1008 29.77 837 24.72 4.7 40.4 91 3.3 38
21:30 1008 29.77 837 24.72 4.6 40.2 91 3.2 37.8
21:35 1008 29.77 837 24.72 4.4 39.9 92 3.1 37.7
21:40 1008 29.77 837 24.72 4.3 39.8 92 3.2 37.7
21:45 1008 29.77 837 24.72 4.3 39.7 92 3.1 37.6
21:50 1008 29.77 837 24.72 4.2 39.6 92 3 37.4
21:55 1008 29.77 837 24.72 4.1 39.4 92 3 37.3
22:00 1008 29.77 837 24.72 4.1 39.3 92 2.9 37.3
22:05 1008 29.77 837 24.72 4.1 39.4 92 3 37.3
22:10 1007 29.74 837 24.72 4.1 39.3 92 2.9 37.2
22:15 1007 29.74 837 24.72 4 39.2 93 2.9 37.2
22:20 1008 29.77 837 24.72 4 39.1 93 2.9 37.2
22:25 1008 29.77 837 24.72 4 39.2 93 2.9 37.3
22:30 1008 29.77 838 24.75 4 39.2 92 2.8 37
22:35 1009 29.8 838 24.75 3.9 39 91 2.6 36.6
22:40 1008 29.77 838 24.75 3.8 38.9 91 2.5 36.5
22:45 1008 29.77 837 24.72 3.8 38.9 92 2.7 36.8
22:50 1008 29.77 837 24.72 3.9 38.9 91 2.5 36.6
22:55 1008 29.77 837 24.72 3.9 39.1 91 2.6 36.7
23:00 1008 29.77 837 24.72 3.8 38.9 92 2.6 36.7
23:05 1008 29.77 837 24.72 3.7 38.7 92 2.6 36.6
23:10 1008 29.77 838 24.75 3.8 38.8 92 2.6 36.7
23:15 1008 29.77 837 24.72 3.7 38.7 93 2.7 36.8
23:20 1008 29.77 838 24.75 3.7 38.7 92 2.5 36.6
23:25 1008 29.77 837 24.72 3.7 38.7 92 2.5 36.6
23:30 1008 29.77 838 24.75 3.9 39 90 2.4 36.3
23:35 1008 29.77 838 24.75 3.9 39.1 91 2.6 36.7
23:40 1008 29.77 837 24.72 4 39.2 92 2.8 37
23:45 1008 29.77 837 24.72 4 39.3 91 2.8 37
23:50 1008 29.77 837 24.72 4 39.2 91 2.7 36.8
23:55 1008 29.77 838 24.75 4 39.2 91 2.7 36.9
24:00 1009 29.8 838 24.75 3.8 38.9 92 2.7 36.9